sensor_id;sensor_type;location;lat;lon;timestamp;pressure;altitude;pressure_sealevel;temperature;humidity
78613;BME280;67933;51.060;3.638;2024-03-25T00:01:24;100993.91;;;1.35;100.00
78613;BME280;67933;51.060;3.638;2024-03-25T00:03:50;100991.38;;;1.30;100.00
78613;BME280;67933;51.060;3.638;2024-03-25T00:06:15;100988.81;;;1.26;100.00
78613;BME280;67933;51.060;3.638;2024-03-25T00:08:41;100983.63;;;1.24;100.00
78613;BME280;67933;51.060;3.638;2024-03-25T00:11:07;100982.78;;;1.24;100.00
78613;BME280;67933;51.060;3.638;2024-03-25T00:13:32;100976.66;;;1.25;100.00
78613;BME280;67933;51.060;3.638;2024-03-25T00:15:58;100980.22;;;1.21;100.00
78613;BME280;67933;51.060;3.638;2024-03-25T00:18:23;100983.66;;;1.23;100.00
78613;BME280;67933;51.060;3.638;2024-03-25T00:20:48;100978.47;;;1.21;100.00
78613;BME280;67933;51.060;3.638;2024-03-25T00:23:14;100975.00;;;1.21;100.00
78613;BME280;67933;51.060;3.638;2024-03-25T00:25:40;100988.16;;;1.14;100.00
78613;BME280;67933;51.060;3.638;2024-03-25T00:28:05;100975.13;;;1.11;100.00
78613;BME280;67933;51.060;3.638;2024-03-25T00:30:31;100975.13;;;1.13;100.00
78613;BME280;67933;51.060;3.638;2024-03-25T00:32:56;100976.00;;;1.12;100.00
78613;BME280;67933;51.060;3.638;2024-03-25T00:35:22;100965.66;;;1.07;100.00
78613;BME280;67933;51.060;3.638;2024-03-25T00:37:48;100962.22;;;1.04;100.00
78613;BME280;67933;51.060;3.638;2024-03-25T00:40:14;100964.91;;;0.99;100.00
78613;BME280;67933;51.060;3.638;2024-03-25T00:42:41;100967.47;;;1.01;100.00
78613;BME280;67933;51.060;3.638;2024-03-25T00:45:07;100971.88;;;1.00;100.00
78613;BME280;67933;51.060;3.638;2024-03-25T00:47:32;100968.34;;;1.01;100.00
78613;BME280;67933;51.060;3.638;2024-03-25T00:49:58;100965.78;;;1.00;100.00
78613;BME280;67933;51.060;3.638;2024-03-25T00:52:24;100970.94;;;1.01;100.00
78613;BME280;67933;51.060;3.638;2024-03-25T00:54:49;100955.38;;;0.95;100.00
78613;BME280;67933;51.060;3.638;2024-03-25T00:57:14;100956.22;;;0.97;100.00
78613;BME280;67933;51.060;3.638;2024-03-25T00:59:41;100959.72;;;0.98;100.00
78613;BME280;67933;51.060;3.638;2024-03-25T01:02:06;100954.53;;;0.95;100.00
78613;BME280;67933;51.060;3.638;2024-03-25T01:04:31;100959.94;;;0.84;100.00
78613;BME280;67933;51.060;3.638;2024-03-25T01:06:57;100966.06;;;0.80;100.00
78613;BME280;67933;51.060;3.638;2024-03-25T01:09:23;100957.38;;;0.81;100.00
78613;BME280;67933;51.060;3.638;2024-03-25T01:11:50;100956.50;;;0.81;100.00
78613;BME280;67933;51.060;3.638;2024-03-25T01:14:15;100954.97;;;0.69;100.00
78613;BME280;67933;51.060;3.638;2024-03-25T01:16:41;100942.72;;;0.71;100.00
78613;BME280;67933;51.060;3.638;2024-03-25T01:19:08;100950.66;;;0.65;100.00
78613;BME280;67933;51.060;3.638;2024-03-25T01:21:34;100942.88;;;0.62;100.00
78613;BME280;67933;51.060;3.638;2024-03-25T01:24:00;100948.91;;;0.65;100.00
78613;BME280;67933;51.060;3.638;2024-03-25T01:26:25;100934.09;;;0.66;100.00
78613;BME280;67933;51.060;3.638;2024-03-25T01:28:51;100939.34;;;0.66;100.00
78613;BME280;67933;51.060;3.638;2024-03-25T01:31:16;100937.59;;;0.65;100.00
78613;BME280;67933;51.060;3.638;2024-03-25T01:33:41;100941.84;;;0.72;100.00
78613;BME280;67933;51.060;3.638;2024-03-25T01:36:07;100925.34;;;0.70;100.00
78613;BME280;67933;51.060;3.638;2024-03-25T01:38:33;100930.72;;;0.61;100.00
78613;BME280;67933;51.060;3.638;2024-03-25T01:41:11;100929.88;;;0.59;100.00
78613;BME280;67933;51.060;3.638;2024-03-25T01:43:37;100916.81;;;0.59;100.00
78613;BME280;67933;51.060;3.638;2024-03-25T01:46:03;100918.47;;;0.63;100.00
78613;BME280;67933;51.060;3.638;2024-03-25T01:48:29;100907.97;;;0.69;100.00
78613;BME280;67933;51.060;3.638;2024-03-25T01:50:55;100913.19;;;0.69;100.00
78613;BME280;67933;51.060;3.638;2024-03-25T01:53:21;100920.22;;;0.64;100.00
78613;BME280;67933;51.060;3.638;2024-03-25T01:55:48;100920.22;;;0.64;100.00
78613;BME280;67933;51.060;3.638;2024-03-25T01:58:14;100905.41;;;0.64;100.00
78613;BME280;67933;51.060;3.638;2024-03-25T02:00:40;100900.19;;;0.64;100.00
78613;BME280;67933;51.060;3.638;2024-03-25T02:03:06;100910.75;;;0.58;100.00
78613;BME280;67933;51.060;3.638;2024-03-25T02:05:32;100891.63;;;0.56;100.00
78613;BME280;67933;51.060;3.638;2024-03-25T02:07:59;100904.75;;;0.52;100.00
78613;BME280;67933;51.060;3.638;2024-03-25T02:10:25;100890.06;;;0.46;100.00
78613;BME280;67933;51.060;3.638;2024-03-25T02:12:51;100897.84;;;0.48;100.00
78613;BME280;67933;51.060;3.638;2024-03-25T02:15:17;100895.22;;;0.49;100.00
78613;BME280;67933;51.060;3.638;2024-03-25T02:17:43;100887.38;;;0.51;100.00
78613;BME280;67933;51.060;3.638;2024-03-25T02:20:09;100881.31;;;0.47;100.00
78613;BME280;67933;51.060;3.638;2024-03-25T02:22:35;100890.75;;;0.57;100.00
78613;BME280;67933;51.060;3.638;2024-03-25T02:25:06;100888.72;;;0.76;100.00
78613;BME280;67933;51.060;3.638;2024-03-25T02:27:34;100890.25;;;0.86;100.00
78613;BME280;67933;51.060;3.638;2024-03-25T02:30:06;100885.84;;;0.90;100.00
78613;BME280;67933;51.060;3.638;2024-03-25T02:32:33;100876.31;;;0.87;100.00
78613;BME280;67933;51.060;3.638;2024-03-25T02:35:01;100873.91;;;0.76;100.00
78613;BME280;67933;51.060;3.638;2024-03-25T02:37:27;100867.06;;;0.69;100.00
78613;BME280;67933;51.060;3.638;2024-03-25T02:39:54;100870.56;;;0.68;100.00
78613;BME280;67933;51.060;3.638;2024-03-25T02:42:21;100861.78;;;0.72;100.00
78613;BME280;67933;51.060;3.638;2024-03-25T02:44:46;100866.13;;;0.72;100.00
78613;BME280;67933;51.060;3.638;2024-03-25T02:47:12;100864.41;;;0.71;100.00
78613;BME280;67933;51.060;3.638;2024-03-25T02:49:38;100856.50;;;0.75;100.00
78613;BME280;67933;51.060;3.638;2024-03-25T02:52:03;100850.28;;;0.84;100.00
78613;BME280;67933;51.060;3.638;2024-03-25T02:54:29;100854.41;;;0.94;100.00
78613;BME280;67933;51.060;3.638;2024-03-25T02:56:54;100855.16;;;1.01;100.00
78613;BME280;67933;51.060;3.638;2024-03-25T02:59:19;100854.34;;;1.00;100.00
78613;BME280;67933;51.060;3.638;2024-03-25T03:01:45;100841.47;;;0.90;100.00
78613;BME280;67933;51.060;3.638;2024-03-25T03:04:10;100845.09;;;0.81;100.00
78613;BME280;67933;51.060;3.638;2024-03-25T03:06:35;100847.81;;;0.76;100.00
78613;BME280;67933;51.060;3.638;2024-03-25T03:09:01;100845.13;;;0.80;100.00
78613;BME280;67933;51.060;3.638;2024-03-25T03:11:26;100838.16;;;0.80;100.00
78613;BME280;67933;51.060;3.638;2024-03-25T03:13:51;100848.72;;;0.72;100.00
78613;BME280;67933;51.060;3.638;2024-03-25T03:16:17;100841.75;;;0.73;100.00
78613;BME280;67933;51.060;3.638;2024-03-25T03:18:42;100841.41;;;0.93;100.00
78613;BME280;67933;51.060;3.638;2024-03-25T03:21:08;100831.25;;;1.24;100.00
78613;BME280;67933;51.060;3.638;2024-03-25T03:23:33;100837.91;;;1.38;100.00
78613;BME280;67933;51.060;3.638;2024-03-25T03:25:58;100829.22;;;1.38;100.00
78613;BME280;67933;51.060;3.638;2024-03-25T03:28:25;100828.41;;;1.33;100.00
78613;BME280;67933;51.060;3.638;2024-03-25T03:30:50;100827.63;;;1.31;100.00
78613;BME280;67933;51.060;3.638;2024-03-25T03:33:16;100825.09;;;1.25;100.00
78613;BME280;67933;51.060;3.638;2024-03-25T03:35:42;100830.41;;;1.22;100.00
78613;BME280;67933;51.060;3.638;2024-03-25T03:38:09;100817.53;;;1.11;100.00
78613;BME280;67933;51.060;3.638;2024-03-25T03:40:34;100818.56;;;1.04;100.00
78613;BME280;67933;51.060;3.638;2024-03-25T03:43:00;100825.66;;;0.96;100.00
78613;BME280;67933;51.060;3.638;2024-03-25T03:45:25;100826.56;;;0.95;100.00
78613;BME280;67933;51.060;3.638;2024-03-25T03:47:51;100818.56;;;1.02;100.00
78613;BME280;67933;51.060;3.638;2024-03-25T03:50:16;100813.19;;;1.11;100.00
78613;BME280;67933;51.060;3.638;2024-03-25T03:52:42;100821.97;;;1.07;100.00
78613;BME280;67933;51.060;3.638;2024-03-25T03:55:07;100821.97;;;1.07;100.00
78613;BME280;67933;51.060;3.638;2024-03-25T03:57:33;100810.63;;;1.08;100.00
78613;BME280;67933;51.060;3.638;2024-03-25T03:59:58;100817.53;;;1.12;100.00
78613;BME280;67933;51.060;3.638;2024-03-25T04:02:25;100802.69;;;1.14;100.00
78613;BME280;67933;51.060;3.638;2024-03-25T04:04:51;100806.19;;;1.13;100.00
78613;BME280;67933;51.060;3.638;2024-03-25T04:07:16;100807.91;;;1.14;100.00
78613;BME280;67933;51.060;3.638;2024-03-25T04:09:43;100814.81;;;1.17;100.00
78613;BME280;67933;51.060;3.638;2024-03-25T04:12:08;100806.97;;;1.17;100.00
78613;BME280;67933;51.060;3.638;2024-03-25T04:14:33;100809.50;;;1.22;100.00
78613;BME280;67933;51.060;3.638;2024-03-25T04:16:59;100812.88;;;1.27;100.00
78613;BME280;67933;51.060;3.638;2024-03-25T04:19:25;100804.97;;;1.31;100.00
78613;BME280;67933;51.060;3.638;2024-03-25T04:21:50;100798.78;;;1.34;100.00
78613;BME280;67933;51.060;3.638;2024-03-25T04:24:17;100804.63;;;1.46;100.00
78613;BME280;67933;51.060;3.638;2024-03-25T04:26:44;100809.47;;;1.65;100.00
78613;BME280;67933;51.060;3.638;2024-03-25T04:29:09;100799.81;;;1.68;100.00
78613;BME280;67933;51.060;3.638;2024-03-25T04:31:35;100813.97;;;1.58;100.00
78613;BME280;67933;51.060;3.638;2024-03-25T04:34:01;100801.97;;;1.48;100.00
78613;BME280;67933;51.060;3.638;2024-03-25T04:36:27;100803.88;;;1.40;100.00
78613;BME280;67933;51.060;3.638;2024-03-25T04:38:52;100789.28;;;1.31;100.00
78613;BME280;67933;51.060;3.638;2024-03-25T04:41:17;100794.59;;;1.25;100.00
78613;BME280;67933;51.060;3.638;2024-03-25T04:43:43;100792.22;;;1.14;100.00
78613;BME280;67933;51.060;3.638;2024-03-25T04:46:08;100788.91;;;1.06;100.00
78613;BME280;67933;51.060;3.638;2024-03-25T04:48:33;100782.09;;;0.99;100.00
78613;BME280;67933;51.060;3.638;2024-03-25T04:50:59;100798.56;;;1.01;100.00
78613;BME280;67933;51.060;3.638;2024-03-25T04:53:25;100789.78;;;1.07;100.00
78613;BME280;67933;51.060;3.638;2024-03-25T04:55:51;100793.97;;;1.15;100.00
78613;BME280;67933;51.060;3.638;2024-03-25T04:58:16;100795.63;;;1.18;100.00
78613;BME280;67933;51.060;3.638;2024-03-25T05:00:41;100796.56;;;1.15;100.00
78613;BME280;67933;51.060;3.638;2024-03-25T05:03:07;100794.66;;;1.24;100.00
78613;BME280;67933;51.060;3.638;2024-03-25T05:05:32;100785.72;;;1.34;100.00
78613;BME280;67933;51.060;3.638;2024-03-25T05:07:57;100774.19;;;1.44;100.00
78613;BME280;67933;51.060;3.638;2024-03-25T05:10:23;100784.69;;;1.41;100.00
78613;BME280;67933;51.060;3.638;2024-03-25T05:12:48;100775.22;;;1.37;100.00
78613;BME280;67933;51.060;3.638;2024-03-25T05:15:14;100787.16;;;1.48;100.00
78613;BME280;67933;51.060;3.638;2024-03-25T05:17:40;100789.34;;;1.68;100.00
78613;BME280;67933;51.060;3.638;2024-03-25T05:20:06;100781.75;;;1.94;100.00
78613;BME280;67933;51.060;3.638;2024-03-25T05:22:31;100790.25;;;2.04;100.00
78613;BME280;67933;51.060;3.638;2024-03-25T05:24:57;100787.53;;;2.09;100.00
78613;BME280;67933;51.060;3.638;2024-03-25T05:27:22;100794.34;;;2.16;100.00
78613;BME280;67933;51.060;3.638;2024-03-25T05:29:49;100782.84;;;2.23;100.00
78613;BME280;67933;51.060;3.638;2024-03-25T05:32:14;100785.34;;;2.26;100.00
78613;BME280;67933;51.060;3.638;2024-03-25T05:34:41;100785.31;;;2.27;100.00
78613;BME280;67933;51.060;3.638;2024-03-25T05:37:07;100786.88;;;2.35;100.00
78613;BME280;67933;51.060;3.638;2024-03-25T05:39:33;100783.25;;;2.40;100.00
78613;BME280;67933;51.060;3.638;2024-03-25T05:41:58;100787.47;;;2.47;100.00
78613;BME280;67933;51.060;3.638;2024-03-25T05:44:24;100788.19;;;2.52;100.00
78613;BME280;67933;51.060;3.638;2024-03-25T05:46:49;100776.69;;;2.58;100.00
78613;BME280;67933;51.060;3.638;2024-03-25T05:49:14;100778.22;;;2.66;100.00
78613;BME280;67933;51.060;3.638;2024-03-25T05:51:40;100777.03;;;2.78;100.00
78613;BME280;67933;51.060;3.638;2024-03-25T05:54:05;100783.66;;;2.91;100.00
78613;BME280;67933;51.060;3.638;2024-03-25T05:56:30;100777.28;;;3.01;100.00
78613;BME280;67933;51.060;3.638;2024-03-25T05:58:59;100770.97;;;3.08;100.00
78613;BME280;67933;51.060;3.638;2024-03-25T06:01:26;100768.91;;;3.18;100.00
78613;BME280;67933;51.060;3.638;2024-03-25T06:03:52;100774.91;;;3.23;100.00
78613;BME280;67933;51.060;3.638;2024-03-25T06:06:17;100770.25;;;3.33;100.00
78613;BME280;67933;51.060;3.638;2024-03-25T06:08:43;100762.97;;;3.42;100.00
78613;BME280;67933;51.060;3.638;2024-03-25T06:11:08;100757.63;;;3.45;100.00
78613;BME280;67933;51.060;3.638;2024-03-25T06:13:34;100763.31;;;3.60;100.00
78613;BME280;67933;51.060;3.638;2024-03-25T06:15:59;100760.38;;;3.70;100.00
78613;BME280;67933;51.060;3.638;2024-03-25T06:18:25;100761.09;;;3.75;100.00
78613;BME280;67933;51.060;3.638;2024-03-25T06:20:50;100759.78;;;3.88;100.00
78613;BME280;67933;51.060;3.638;2024-03-25T06:23:23;100754.41;;;3.93;100.00
78613;BME280;67933;51.060;3.638;2024-03-25T06:25:52;100756.75;;;4.02;100.00
78613;BME280;67933;51.060;3.638;2024-03-25T06:28:18;100751.16;;;4.11;100.00
78613;BME280;67933;51.060;3.638;2024-03-25T06:30:45;100742.09;;;4.21;100.00
78613;BME280;67933;51.060;3.638;2024-03-25T06:33:30;100738.31;;;4.30;100.00
78613;BME280;67933;51.060;3.638;2024-03-25T06:36:14;100732.75;;;4.39;100.00
78613;BME280;67933;51.060;3.638;2024-03-25T06:38:39;100726.16;;;4.52;100.00
78613;BME280;67933;51.060;3.638;2024-03-25T06:41:05;100740.75;;;4.61;100.00
78613;BME280;67933;51.060;3.638;2024-03-25T06:43:30;100728.19;;;4.69;100.00
78613;BME280;67933;51.060;3.638;2024-03-25T06:45:55;100727.88;;;4.78;100.00
78613;BME280;67933;51.060;3.638;2024-03-25T06:48:21;100729.25;;;4.88;100.00
78613;BME280;67933;51.060;3.638;2024-03-25T06:50:56;100729.72;;;4.99;100.00
78613;BME280;67933;51.060;3.638;2024-03-25T06:53:22;100720.88;;;5.02;100.00
78613;BME280;67933;51.060;3.638;2024-03-25T06:55:55;100716.25;;;5.09;100.00
78613;BME280;67933;51.060;3.638;2024-03-25T06:58:22;100728.47;;;5.10;100.00
78613;BME280;67933;51.060;3.638;2024-03-25T07:00:48;100727.38;;;5.15;100.00
78613;BME280;67933;51.060;3.638;2024-03-25T07:03:18;100722.03;;;5.18;100.00
78613;BME280;67933;51.060;3.638;2024-03-25T07:05:45;100734.94;;;5.24;100.00
78613;BME280;67933;51.060;3.638;2024-03-25T07:08:11;100727.66;;;5.31;100.00
78613;BME280;67933;51.060;3.638;2024-03-25T07:10:36;100729.50;;;5.29;100.00
78613;BME280;67933;51.060;3.638;2024-03-25T07:13:01;100722.50;;;5.28;100.00
78613;BME280;67933;51.060;3.638;2024-03-25T07:15:27;100729.50;;;5.29;100.00
78613;BME280;67933;51.060;3.638;2024-03-25T07:17:52;100736.38;;;5.33;100.00
78613;BME280;67933;51.060;3.638;2024-03-25T07:20:17;100737.38;;;5.29;100.00
78613;BME280;67933;51.060;3.638;2024-03-25T07:22:45;100739.78;;;5.35;100.00
78613;BME280;67933;51.060;3.638;2024-03-25T07:25:11;100744.88;;;5.39;100.00
78613;BME280;67933;51.060;3.638;2024-03-25T07:27:36;100744.94;;;5.38;100.00
78613;BME280;67933;51.060;3.638;2024-03-25T07:30:03;100745.97;;;5.34;100.00
78613;BME280;67933;51.060;3.638;2024-03-25T07:32:31;100757.50;;;5.30;100.00
78613;BME280;67933;51.060;3.638;2024-03-25T07:34:57;100749.53;;;5.33;100.00
78613;BME280;67933;51.060;3.638;2024-03-25T07:37:22;100752.78;;;5.39;100.00
78613;BME280;67933;51.060;3.638;2024-03-25T07:39:48;100746.31;;;5.48;100.00
78613;BME280;67933;51.060;3.638;2024-03-25T07:42:13;100750.47;;;5.54;100.00
78613;BME280;67933;51.060;3.638;2024-03-25T07:44:39;100746.44;;;5.67;100.00
78613;BME280;67933;51.060;3.638;2024-03-25T07:47:04;100737.63;;;5.68;100.00
78613;BME280;67933;51.060;3.638;2024-03-25T07:49:31;100743.56;;;5.73;100.00
78613;BME280;67933;51.060;3.638;2024-03-25T07:51:56;100735.59;;;5.74;100.00
78613;BME280;67933;51.060;3.638;2024-03-25T07:54:22;100732.81;;;5.79;100.00
78613;BME280;67933;51.060;3.638;2024-03-25T07:56:47;100736.88;;;5.88;100.00
78613;BME280;67933;51.060;3.638;2024-03-25T07:59:13;100735.56;;;5.98;100.00
78613;BME280;67933;51.060;3.638;2024-03-25T08:01:38;100743.91;;;6.09;100.00
78613;BME280;67933;51.060;3.638;2024-03-25T08:04:03;100733.97;;;6.15;100.00
78613;BME280;67933;51.060;3.638;2024-03-25T08:06:29;100728.50;;;6.20;100.00
78613;BME280;67933;51.060;3.638;2024-03-25T08:08:54;100735.91;;;6.32;100.00
78613;BME280;67933;51.060;3.638;2024-03-25T08:11:20;100735.53;;;6.41;100.00
78613;BME280;67933;51.060;3.638;2024-03-25T08:13:46;100726.25;;;6.33;100.00
78613;BME280;67933;51.060;3.638;2024-03-25T08:16:11;100726.63;;;6.24;100.00
78613;BME280;67933;51.060;3.638;2024-03-25T08:18:37;100714.78;;;6.34;100.00
78613;BME280;67933;51.060;3.638;2024-03-25T08:21:02;100712.28;;;6.31;100.00
78613;BME280;67933;51.060;3.638;2024-03-25T08:23:28;100715.69;;;6.33;100.00
78613;BME280;67933;51.060;3.638;2024-03-25T08:25:53;100714.19;;;6.47;100.00
78613;BME280;67933;51.060;3.638;2024-03-25T08:28:18;100720.06;;;6.54;100.00
78613;BME280;67933;51.060;3.638;2024-03-25T08:30:44;100712.59;;;6.64;100.00
78613;BME280;67933;51.060;3.638;2024-03-25T08:33:09;100701.94;;;7.24;100.00
78613;BME280;67933;51.060;3.638;2024-03-25T08:35:34;100703.22;;;8.25;100.00
78613;BME280;67933;51.060;3.638;2024-03-25T08:38:00;100709.56;;;8.21;100.00
78613;BME280;67933;51.060;3.638;2024-03-25T08:40:25;100699.28;;;7.98;100.00
78613;BME280;67933;51.060;3.638;2024-03-25T08:42:51;100709.28;;;7.74;100.00
78613;BME280;67933;51.060;3.638;2024-03-25T08:45:16;100702.41;;;7.70;100.00
78613;BME280;67933;51.060;3.638;2024-03-25T08:47:42;100694.78;;;7.64;100.00
78613;BME280;67933;51.060;3.638;2024-03-25T08:50:08;100682.00;;;7.73;100.00
78613;BME280;67933;51.060;3.638;2024-03-25T08:52:33;100679.63;;;7.86;100.00
78613;BME280;67933;51.060;3.638;2024-03-25T08:54:59;100693.34;;;8.11;100.00
78613;BME280;67933;51.060;3.638;2024-03-25T08:57:24;100688.19;;;9.26;100.00
78613;BME280;67933;51.060;3.638;2024-03-25T08:59:50;100673.13;;;10.05;100.00
78613;BME280;67933;51.060;3.638;2024-03-25T09:02:15;100677.09;;;11.14;100.00
78613;BME280;67933;51.060;3.638;2024-03-25T09:04:40;100674.81;;;10.80;100.00
78613;BME280;67933;51.060;3.638;2024-03-25T09:07:06;100690.19;;;10.89;100.00
78613;BME280;67933;51.060;3.638;2024-03-25T09:09:31;100689.09;;;10.49;100.00
78613;BME280;67933;51.060;3.638;2024-03-25T09:12:15;100680.84;;;9.78;100.00
78613;BME280;67933;51.060;3.638;2024-03-25T09:14:40;100672.97;;;9.77;100.00
78613;BME280;67933;51.060;3.638;2024-03-25T09:17:06;100673.78;;;9.63;100.00
78613;BME280;67933;51.060;3.638;2024-03-25T09:19:31;100665.66;;;9.35;100.00
78613;BME280;67933;51.060;3.638;2024-03-25T09:21:56;100668.47;;;9.47;100.00
78613;BME280;67933;51.060;3.638;2024-03-25T09:24:22;100662.69;;;10.90;100.00
78613;BME280;67933;51.060;3.638;2024-03-25T09:26:50;100664.09;;;11.65;100.00
78613;BME280;67933;51.060;3.638;2024-03-25T09:29:16;100650.53;;;12.61;100.00
78613;BME280;67933;51.060;3.638;2024-03-25T09:31:42;100646.34;;;13.08;100.00
78613;BME280;67933;51.060;3.638;2024-03-25T09:34:07;100646.78;;;13.15;100.00
78613;BME280;67933;51.060;3.638;2024-03-25T09:36:34;100637.75;;;13.54;100.00
78613;BME280;67933;51.060;3.638;2024-03-25T09:38:59;100637.00;;;12.90;100.00
78613;BME280;67933;51.060;3.638;2024-03-25T09:41:27;100628.84;;;13.29;100.00
78613;BME280;67933;51.060;3.638;2024-03-25T09:43:54;100629.38;;;13.34;100.00
78613;BME280;67933;51.060;3.638;2024-03-25T09:46:23;100624.94;;;12.97;100.00
78613;BME280;67933;51.060;3.638;2024-03-25T09:48:51;100633.69;;;12.23;100.00
78613;BME280;67933;51.060;3.638;2024-03-25T09:51:18;100628.38;;;12.23;100.00
78613;BME280;67933;51.060;3.638;2024-03-25T09:53:43;100622.81;;;13.15;100.00
78613;BME280;67933;51.060;3.638;2024-03-25T09:56:11;100614.88;;;14.89;99.72
78613;BME280;67933;51.060;3.638;2024-03-25T09:58:38;100611.03;;;13.66;97.13
78613;BME280;67933;51.060;3.638;2024-03-25T10:01:04;100611.50;;;13.24;100.00
78613;BME280;67933;51.060;3.638;2024-03-25T10:03:30;100598.81;;;12.53;100.00
78613;BME280;67933;51.060;3.638;2024-03-25T10:05:55;100597.50;;;12.33;100.00
78613;BME280;67933;51.060;3.638;2024-03-25T10:08:21;100590.88;;;13.15;100.00
78613;BME280;67933;51.060;3.638;2024-03-25T10:10:48;100592.81;;;14.30;100.00
78613;BME280;67933;51.060;3.638;2024-03-25T10:13:15;100592.16;;;14.95;90.56
78613;BME280;67933;51.060;3.638;2024-03-25T10:15:41;100586.53;;;13.61;93.97
78613;BME280;67933;51.060;3.638;2024-03-25T10:18:06;100591.53;;;14.58;90.92
78613;BME280;67933;51.060;3.638;2024-03-25T10:20:31;100590.25;;;15.51;86.93
78613;BME280;67933;51.060;3.638;2024-03-25T10:22:57;100587.19;;;15.01;84.08
78613;BME280;67933;51.060;3.638;2024-03-25T10:25:27;100584.03;;;14.96;89.47
78613;BME280;67933;51.060;3.638;2024-03-25T10:28:00;100571.19;;;16.29;64.72
78613;BME280;67933;51.060;3.638;2024-03-25T10:30:26;100564.13;;;15.44;67.57
78613;BME280;67933;51.060;3.638;2024-03-25T10:33:02;100569.94;;;15.17;66.07
78613;BME280;67933;51.060;3.638;2024-03-25T10:35:29;100554.97;;;15.89;64.48
78613;BME280;67933;51.060;3.638;2024-03-25T10:37:57;100549.94;;;15.75;65.07
78613;BME280;67933;51.060;3.638;2024-03-25T10:40:27;100548.13;;;16.38;62.03
78613;BME280;67933;51.060;3.638;2024-03-25T10:42:56;100546.88;;;16.42;62.33
78613;BME280;67933;51.060;3.638;2024-03-25T10:45:25;100544.63;;;16.68;60.71
78613;BME280;67933;51.060;3.638;2024-03-25T10:47:54;100548.31;;;17.16;60.55
78613;BME280;67933;51.060;3.638;2024-03-25T10:50:24;100553.16;;;17.32;58.19
78613;BME280;67933;51.060;3.638;2024-03-25T10:52:52;100537.06;;;17.32;56.67
78613;BME280;67933;51.060;3.638;2024-03-25T10:55:20;100531.50;;;16.95;59.02
78613;BME280;67933;51.060;3.638;2024-03-25T10:57:47;100538.66;;;17.92;57.87
78613;BME280;67933;51.060;3.638;2024-03-25T11:00:14;100538.13;;;18.82;57.78
78613;BME280;67933;51.060;3.638;2024-03-25T11:02:42;100532.63;;;19.11;50.27
78613;BME280;67933;51.060;3.638;2024-03-25T11:05:09;100533.81;;;18.15;51.94
78613;BME280;67933;51.060;3.638;2024-03-25T11:07:35;100525.63;;;17.40;54.74
78613;BME280;67933;51.060;3.638;2024-03-25T11:10:07;100523.78;;;18.17;53.97
78613;BME280;67933;51.060;3.638;2024-03-25T11:12:34;100515.06;;;17.67;54.22
78613;BME280;67933;51.060;3.638;2024-03-25T11:15:04;100525.59;;;15.57;58.18
78613;BME280;67933;51.060;3.638;2024-03-25T11:17:31;100519.69;;;16.46;55.27
78613;BME280;67933;51.060;3.638;2024-03-25T11:20:10;100516.34;;;16.84;52.55
78613;BME280;67933;51.060;3.638;2024-03-25T11:22:47;100514.41;;;15.84;55.78
78613;BME280;67933;51.060;3.638;2024-03-25T11:25:13;100514.34;;;17.55;52.46
78613;BME280;67933;51.060;3.638;2024-03-25T11:27:38;100506.44;;;17.73;48.99
78613;BME280;67933;51.060;3.638;2024-03-25T11:30:06;100510.63;;;18.24;48.03
78613;BME280;67933;51.060;3.638;2024-03-25T11:35:08;100501.50;;;16.71;52.00
78613;BME280;67933;51.060;3.638;2024-03-25T11:37:39;100504.31;;;15.24;52.52
78613;BME280;67933;51.060;3.638;2024-03-25T11:40:05;100492.97;;;16.96;51.04
78613;BME280;67933;51.060;3.638;2024-03-25T11:42:32;100495.72;;;17.54;50.32
78613;BME280;67933;51.060;3.638;2024-03-25T11:44:59;100499.66;;;14.94;50.38
78613;BME280;67933;51.060;3.638;2024-03-25T11:47:25;100489.88;;;14.50;54.55
78613;BME280;67933;51.060;3.638;2024-03-25T11:49:51;100489.91;;;13.46;59.53
78613;BME280;67933;51.060;3.638;2024-03-25T11:52:16;100484.97;;;14.21;58.87
78613;BME280;67933;51.060;3.638;2024-03-25T11:54:42;100475.78;;;14.59;56.76
78613;BME280;67933;51.060;3.638;2024-03-25T11:57:08;100484.47;;;14.05;54.60
78613;BME280;67933;51.060;3.638;2024-03-25T11:59:34;100475.88;;;13.56;57.25
78613;BME280;67933;51.060;3.638;2024-03-25T12:01:59;100482.00;;;12.73;59.83
78613;BME280;67933;51.060;3.638;2024-03-25T12:04:27;100470.53;;;12.60;60.63
78613;BME280;67933;51.060;3.638;2024-03-25T12:06:54;100461.94;;;12.81;62.13
78613;BME280;67933;51.060;3.638;2024-03-25T12:09:22;100446.16;;;12.90;60.04
78613;BME280;67933;51.060;3.638;2024-03-25T12:12:07;100448.91;;;12.65;58.02
78613;BME280;67933;51.060;3.638;2024-03-25T12:14:33;100440.72;;;12.68;60.45
78613;BME280;67933;51.060;3.638;2024-03-25T12:16:58;100448.09;;;13.82;56.03
78613;BME280;67933;51.060;3.638;2024-03-25T12:19:24;100432.00;;;13.48;56.37
78613;BME280;67933;51.060;3.638;2024-03-25T12:21:50;100428.19;;;13.05;58.69
78613;BME280;67933;51.060;3.638;2024-03-25T12:24:15;100424.56;;;13.06;58.57
78613;BME280;67933;51.060;3.638;2024-03-25T12:26:41;100413.63;;;12.98;61.12
78613;BME280;67933;51.060;3.638;2024-03-25T12:29:07;100413.75;;;12.96;60.95
78613;BME280;67933;51.060;3.638;2024-03-25T12:31:32;100411.63;;;14.05;57.26
78613;BME280;67933;51.060;3.638;2024-03-25T12:33:58;100412.56;;;14.04;54.77
78613;BME280;67933;51.060;3.638;2024-03-25T12:36:23;100397.88;;;13.54;55.97
78613;BME280;67933;51.060;3.638;2024-03-25T12:38:55;100395.38;;;13.85;54.01
78613;BME280;67933;51.060;3.638;2024-03-25T12:41:22;100384.00;;;15.76;49.65
78613;BME280;67933;51.060;3.638;2024-03-25T12:43:49;100374.78;;;16.99;47.88
78613;BME280;67933;51.060;3.638;2024-03-25T12:46:15;100370.63;;;17.72;44.01
78613;BME280;67933;51.060;3.638;2024-03-25T12:48:41;100350.56;;;19.29;43.06